sensor_id;sensor_type;location;lat;lon;timestamp;P1;durP1;ratioP1;P2;durP2;ratioP2
20397;SDS011;10358;49.590;11.030;2023-11-19T00:01:27;4.63;;;3.10;;
20397;SDS011;10358;49.590;11.030;2023-11-19T00:03:53;4.20;;;3.00;;
20397;SDS011;10358;49.590;11.030;2023-11-19T00:06:18;3.43;;;2.80;;
20397;SDS011;10358;49.590;11.030;2023-11-19T00:08:44;3.87;;;3.00;;
20397;SDS011;10358;49.590;11.030;2023-11-19T00:11:09;3.93;;;2.90;;
20397;SDS011;10358;49.590;11.030;2023-11-19T00:13:36;4.87;;;3.30;;
20397;SDS011;10358;49.590;11.030;2023-11-19T00:16:02;4.70;;;3.10;;
20397;SDS011;10358;49.590;11.030;2023-11-19T00:18:29;4.17;;;3.10;;
20397;SDS011;10358;49.590;11.030;2023-11-19T00:20:54;4.30;;;3.20;;
20397;SDS011;10358;49.590;11.030;2023-11-19T00:23:20;4.10;;;3.40;;
20397;SDS011;10358;49.590;11.030;2023-11-19T00:25:45;4.40;;;3.20;;
20397;SDS011;10358;49.590;11.030;2023-11-19T00:28:12;4.37;;;3.00;;
20397;SDS011;10358;49.590;11.030;2023-11-19T00:30:38;5.30;;;3.20;;
20397;SDS011;10358;49.590;11.030;2023-11-19T00:33:05;3.73;;;2.90;;
20397;SDS011;10358;49.590;11.030;2023-11-19T00:35:31;3.30;;;2.90;;
20397;SDS011;10358;49.590;11.030;2023-11-19T00:37:57;6.83;;;3.50;;
20397;SDS011;10358;49.590;11.030;2023-11-19T00:40:23;3.20;;;2.90;;
20397;SDS011;10358;49.590;11.030;2023-11-19T00:42:49;4.70;;;3.13;;
20397;SDS011;10358;49.590;11.030;2023-11-19T00:45:15;5.33;;;3.30;;
20397;SDS011;10358;49.590;11.030;2023-11-19T00:47:41;4.27;;;3.17;;
20397;SDS011;10358;49.590;11.030;2023-11-19T00:50:07;4.23;;;3.30;;
20397;SDS011;10358;49.590;11.030;2023-11-19T00:52:36;4.90;;;3.60;;
20397;SDS011;10358;49.590;11.030;2023-11-19T00:55:02;4.20;;;3.33;;
20397;SDS011;10358;49.590;11.030;2023-11-19T00:57:29;4.33;;;3.50;;
20397;SDS011;10358;49.590;11.030;2023-11-19T00:59:58;6.80;;;3.13;;
20397;SDS011;10358;49.590;11.030;2023-11-19T01:02:27;4.77;;;3.57;;
20397;SDS011;10358;49.590;11.030;2023-11-19T01:04:53;4.23;;;3.23;;
20397;SDS011;10358;49.590;11.030;2023-11-19T01:07:18;4.43;;;3.20;;
20397;SDS011;10358;49.590;11.030;2023-11-19T01:09:44;5.93;;;3.17;;
20397;SDS011;10358;49.590;11.030;2023-11-19T01:12:10;6.47;;;3.73;;
20397;SDS011;10358;49.590;11.030;2023-11-19T01:14:35;4.73;;;3.80;;
20397;SDS011;10358;49.590;11.030;2023-11-19T01:17:01;4.77;;;3.60;;
20397;SDS011;10358;49.590;11.030;2023-11-19T01:19:27;4.57;;;3.40;;
20397;SDS011;10358;49.590;11.030;2023-11-19T01:21:53;4.93;;;3.63;;
20397;SDS011;10358;49.590;11.030;2023-11-19T01:24:19;11.90;;;3.30;;
20397;SDS011;10358;49.590;11.030;2023-11-19T01:26:45;4.83;;;3.50;;
20397;SDS011;10358;49.590;11.030;2023-11-19T01:29:12;5.63;;;3.43;;
20397;SDS011;10358;49.590;11.030;2023-11-19T01:31:41;4.50;;;3.40;;
20397;SDS011;10358;49.590;11.030;2023-11-19T01:34:08;5.20;;;3.97;;
20397;SDS011;10358;49.590;11.030;2023-11-19T01:36:34;6.33;;;3.70;;
20397;SDS011;10358;49.590;11.030;2023-11-19T01:38:59;4.93;;;3.67;;
20397;SDS011;10358;49.590;11.030;2023-11-19T01:41:25;5.97;;;3.50;;
20397;SDS011;10358;49.590;11.030;2023-11-19T01:43:50;5.10;;;3.93;;
20397;SDS011;10358;49.590;11.030;2023-11-19T01:46:16;5.07;;;3.57;;
20397;SDS011;10358;49.590;11.030;2023-11-19T01:48:42;7.63;;;3.87;;
20397;SDS011;10358;49.590;11.030;2023-11-19T01:51:10;6.03;;;3.90;;
20397;SDS011;10358;49.590;11.030;2023-11-19T01:53:37;4.53;;;3.60;;
20397;SDS011;10358;49.590;11.030;2023-11-19T01:56:04;5.80;;;3.60;;
20397;SDS011;10358;49.590;11.030;2023-11-19T01:58:33;7.90;;;3.67;;
20397;SDS011;10358;49.590;11.030;2023-11-19T02:01:00;5.37;;;3.87;;
20397;SDS011;10358;49.590;11.030;2023-11-19T02:03:28;5.07;;;4.10;;
20397;SDS011;10358;49.590;11.030;2023-11-19T02:05:56;4.87;;;3.53;;
20397;SDS011;10358;49.590;11.030;2023-11-19T02:08:22;4.70;;;3.60;;
20397;SDS011;10358;49.590;11.030;2023-11-19T02:10:48;4.97;;;3.87;;
20397;SDS011;10358;49.590;11.030;2023-11-19T02:13:13;4.80;;;3.77;;
20397;SDS011;10358;49.590;11.030;2023-11-19T02:15:41;6.47;;;3.73;;
20397;SDS011;10358;49.590;11.030;2023-11-19T02:21:01;5.30;;;3.67;;
20397;SDS011;10358;49.590;11.030;2023-11-19T02:23:27;5.57;;;3.97;;
20397;SDS011;10358;49.590;11.030;2023-11-19T02:28:19;4.90;;;3.60;;
20397;SDS011;10358;49.590;11.030;2023-11-19T02:30:44;4.60;;;3.67;;
20397;SDS011;10358;49.590;11.030;2023-11-19T02:33:10;4.03;;;3.20;;
20397;SDS011;10358;49.590;11.030;2023-11-19T02:35:35;4.43;;;3.50;;
20397;SDS011;10358;49.590;11.030;2023-11-19T02:38:01;5.10;;;3.63;;
20397;SDS011;10358;49.590;11.030;2023-11-19T02:40:29;4.80;;;3.60;;
20397;SDS011;10358;49.590;11.030;2023-11-19T02:42:54;14.63;;;3.77;;
20397;SDS011;10358;49.590;11.030;2023-11-19T02:45:22;6.33;;;3.47;;
20397;SDS011;10358;49.590;11.030;2023-11-19T02:47:48;7.30;;;3.53;;
20397;SDS011;10358;49.590;11.030;2023-11-19T02:50:13;5.13;;;3.50;;
20397;SDS011;10358;49.590;11.030;2023-11-19T02:52:42;4.20;;;3.37;;
20397;SDS011;10358;49.590;11.030;2023-11-19T02:55:10;4.67;;;3.17;;
20397;SDS011;10358;49.590;11.030;2023-11-19T02:57:40;5.03;;;3.23;;
20397;SDS011;10358;49.590;11.030;2023-11-19T03:00:17;4.13;;;3.03;;
20397;SDS011;10358;49.590;11.030;2023-11-19T03:02:44;4.57;;;3.27;;
20397;SDS011;10358;49.590;11.030;2023-11-19T03:05:14;3.53;;;3.00;;
20397;SDS011;10358;49.590;11.030;2023-11-19T03:07:43;5.63;;;3.30;;
20397;SDS011;10358;49.590;11.030;2023-11-19T03:10:12;4.33;;;3.50;;
20397;SDS011;10358;49.590;11.030;2023-11-19T03:12:41;4.13;;;3.37;;
20397;SDS011;10358;49.590;11.030;2023-11-19T03:15:10;4.93;;;3.83;;
20397;SDS011;10358;49.590;11.030;2023-11-19T03:17:38;5.00;;;3.10;;
20397;SDS011;10358;49.590;11.030;2023-11-19T03:20:05;5.70;;;3.80;;
20397;SDS011;10358;49.590;11.030;2023-11-19T03:22:32;4.30;;;3.30;;
20397;SDS011;10358;49.590;11.030;2023-11-19T03:24:59;4.50;;;3.57;;
20397;SDS011;10358;49.590;11.030;2023-11-19T03:27:24;4.93;;;3.70;;
20397;SDS011;10358;49.590;11.030;2023-11-19T03:29:50;6.20;;;3.90;;
20397;SDS011;10358;49.590;11.030;2023-11-19T03:32:15;4.53;;;3.77;;
20397;SDS011;10358;49.590;11.030;2023-11-19T03:34:41;3.67;;;3.00;;
20397;SDS011;10358;49.590;11.030;2023-11-19T03:37:06;4.83;;;3.57;;
20397;SDS011;10358;49.590;11.030;2023-11-19T03:39:32;4.33;;;3.47;;
20397;SDS011;10358;49.590;11.030;2023-11-19T03:41:58;4.70;;;3.60;;
20397;SDS011;10358;49.590;11.030;2023-11-19T03:44:25;4.67;;;3.63;;
20397;SDS011;10358;49.590;11.030;2023-11-19T03:46:52;4.57;;;3.63;;
20397;SDS011;10358;49.590;11.030;2023-11-19T03:49:17;5.10;;;4.43;;
20397;SDS011;10358;49.590;11.030;2023-11-19T03:51:43;5.37;;;3.93;;
20397;SDS011;10358;49.590;11.030;2023-11-19T03:54:08;5.00;;;4.10;;
20397;SDS011;10358;49.590;11.030;2023-11-19T03:56:34;5.47;;;4.17;;
20397;SDS011;10358;49.590;11.030;2023-11-19T03:59:00;5.53;;;4.20;;
20397;SDS011;10358;49.590;11.030;2023-11-19T04:01:25;6.00;;;4.27;;
20397;SDS011;10358;49.590;11.030;2023-11-19T04:03:51;5.87;;;4.40;;
20397;SDS011;10358;49.590;11.030;2023-11-19T04:06:16;6.67;;;4.93;;
20397;SDS011;10358;49.590;11.030;2023-11-19T04:08:42;6.40;;;4.70;;
20397;SDS011;10358;49.590;11.030;2023-11-19T04:11:08;6.90;;;4.93;;
20397;SDS011;10358;49.590;11.030;2023-11-19T04:13:33;6.50;;;4.70;;
20397;SDS011;10358;49.590;11.030;2023-11-19T04:15:59;6.10;;;4.30;;
20397;SDS011;10358;49.590;11.030;2023-11-19T04:18:25;5.90;;;4.40;;
20397;SDS011;10358;49.590;11.030;2023-11-19T04:20:50;6.33;;;5.13;;
20397;SDS011;10358;49.590;11.030;2023-11-19T04:23:16;7.43;;;5.30;;
20397;SDS011;10358;49.590;11.030;2023-11-19T04:25:41;6.10;;;4.97;;
20397;SDS011;10358;49.590;11.030;2023-11-19T04:28:07;7.70;;;5.07;;
20397;SDS011;10358;49.590;11.030;2023-11-19T04:30:33;7.87;;;5.40;;
20397;SDS011;10358;49.590;11.030;2023-11-19T04:32:59;9.93;;;5.37;;
20397;SDS011;10358;49.590;11.030;2023-11-19T04:35:24;6.33;;;4.93;;
20397;SDS011;10358;49.590;11.030;2023-11-19T04:37:51;7.10;;;5.00;;
20397;SDS011;10358;49.590;11.030;2023-11-19T04:40:16;5.93;;;4.83;;
20397;SDS011;10358;49.590;11.030;2023-11-19T04:42:43;7.37;;;5.23;;
20397;SDS011;10358;49.590;11.030;2023-11-19T04:45:09;7.07;;;5.27;;
20397;SDS011;10358;49.590;11.030;2023-11-19T04:47:35;6.40;;;5.03;;
20397;SDS011;10358;49.590;11.030;2023-11-19T04:50:01;7.63;;;5.70;;
20397;SDS011;10358;49.590;11.030;2023-11-19T04:52:28;7.73;;;5.40;;
20397;SDS011;10358;49.590;11.030;2023-11-19T04:54:54;8.27;;;5.87;;
20397;SDS011;10358;49.590;11.030;2023-11-19T04:57:19;8.00;;;5.93;;
20397;SDS011;10358;49.590;11.030;2023-11-19T04:59:44;6.90;;;5.33;;
20397;SDS011;10358;49.590;11.030;2023-11-19T05:02:10;8.10;;;5.60;;
20397;SDS011;10358;49.590;11.030;2023-11-19T05:04:36;10.73;;;5.40;;
20397;SDS011;10358;49.590;11.030;2023-11-19T05:07:02;8.90;;;6.40;;
20397;SDS011;10358;49.590;11.030;2023-11-19T05:09:28;9.57;;;6.43;;
20397;SDS011;10358;49.590;11.030;2023-11-19T05:11:53;9.57;;;6.30;;
20397;SDS011;10358;49.590;11.030;2023-11-19T05:14:19;8.07;;;5.97;;
20397;SDS011;10358;49.590;11.030;2023-11-19T05:16:46;9.37;;;6.53;;
20397;SDS011;10358;49.590;11.030;2023-11-19T05:19:12;12.07;;;7.03;;
20397;SDS011;10358;49.590;11.030;2023-11-19T05:21:37;9.77;;;7.03;;
20397;SDS011;10358;49.590;11.030;2023-11-19T05:24:03;9.70;;;7.30;;
20397;SDS011;10358;49.590;11.030;2023-11-19T05:26:29;11.53;;;7.27;;
20397;SDS011;10358;49.590;11.030;2023-11-19T05:28:55;12.13;;;7.80;;
20397;SDS011;10358;49.590;11.030;2023-11-19T05:31:21;10.33;;;7.40;;
20397;SDS011;10358;49.590;11.030;2023-11-19T05:33:46;15.63;;;7.73;;
20397;SDS011;10358;49.590;11.030;2023-11-19T05:36:12;11.77;;;7.47;;
20397;SDS011;10358;49.590;11.030;2023-11-19T05:38:38;13.43;;;7.67;;
20397;SDS011;10358;49.590;11.030;2023-11-19T05:41:04;13.27;;;8.57;;
20397;SDS011;10358;49.590;11.030;2023-11-19T05:43:30;13.67;;;8.83;;
20397;SDS011;10358;49.590;11.030;2023-11-19T05:45:56;13.07;;;7.77;;
20397;SDS011;10358;49.590;11.030;2023-11-19T05:48:21;12.33;;;7.93;;
20397;SDS011;10358;49.590;11.030;2023-11-19T05:50:47;12.83;;;8.33;;
20397;SDS011;10358;49.590;11.030;2023-11-19T05:53:15;12.63;;;8.10;;
20397;SDS011;10358;49.590;11.030;2023-11-19T05:55:41;13.73;;;8.53;;
20397;SDS011;10358;49.590;11.030;2023-11-19T05:58:19;12.13;;;8.30;;
20397;SDS011;10358;49.590;11.030;2023-11-19T06:00:47;14.07;;;8.77;;
20397;SDS011;10358;49.590;11.030;2023-11-19T06:03:12;14.53;;;8.60;;
20397;SDS011;10358;49.590;11.030;2023-11-19T06:05:38;16.20;;;9.33;;
20397;SDS011;10358;49.590;11.030;2023-11-19T06:08:04;14.13;;;8.37;;
20397;SDS011;10358;49.590;11.030;2023-11-19T06:10:31;13.77;;;9.03;;
20397;SDS011;10358;49.590;11.030;2023-11-19T06:12:58;15.10;;;9.10;;
20397;SDS011;10358;49.590;11.030;2023-11-19T06:15:24;15.07;;;9.10;;
20397;SDS011;10358;49.590;11.030;2023-11-19T06:17:51;13.90;;;8.90;;
20397;SDS011;10358;49.590;11.030;2023-11-19T06:20:17;16.37;;;8.40;;
20397;SDS011;10358;49.590;11.030;2023-11-19T06:22:44;19.47;;;9.33;;
20397;SDS011;10358;49.590;11.030;2023-11-19T06:25:10;14.43;;;9.27;;
20397;SDS011;10358;49.590;11.030;2023-11-19T06:27:36;15.57;;;8.97;;
20397;SDS011;10358;49.590;11.030;2023-11-19T06:30:02;17.97;;;9.27;;
20397;SDS011;10358;49.590;11.030;2023-11-19T06:32:28;13.63;;;8.23;;
20397;SDS011;10358;49.590;11.030;2023-11-19T06:34:53;15.47;;;9.20;;
20397;SDS011;10358;49.590;11.030;2023-11-19T06:37:19;14.90;;;8.60;;
20397;SDS011;10358;49.590;11.030;2023-11-19T06:39:45;14.33;;;8.30;;
20397;SDS011;10358;49.590;11.030;2023-11-19T06:42:10;14.67;;;8.90;;
20397;SDS011;10358;49.590;11.030;2023-11-19T06:44:36;15.93;;;8.97;;
20397;SDS011;10358;49.590;11.030;2023-11-19T06:47:02;16.10;;;9.40;;
20397;SDS011;10358;49.590;11.030;2023-11-19T06:49:27;13.67;;;8.73;;
20397;SDS011;10358;49.590;11.030;2023-11-19T06:51:53;14.27;;;8.43;;
20397;SDS011;10358;49.590;11.030;2023-11-19T06:54:18;17.17;;;10.20;;
20397;SDS011;10358;49.590;11.030;2023-11-19T06:56:44;14.90;;;9.30;;
20397;SDS011;10358;49.590;11.030;2023-11-19T06:59:10;14.97;;;9.23;;
20397;SDS011;10358;49.590;11.030;2023-11-19T07:01:35;15.13;;;8.90;;
20397;SDS011;10358;49.590;11.030;2023-11-19T07:04:02;14.40;;;8.83;;
20397;SDS011;10358;49.590;11.030;2023-11-19T07:06:34;13.50;;;8.50;;
20397;SDS011;10358;49.590;11.030;2023-11-19T07:09:00;15.90;;;8.23;;
20397;SDS011;10358;49.590;11.030;2023-11-19T07:11:35;13.63;;;8.00;;
20397;SDS011;10358;49.590;11.030;2023-11-19T07:14:01;12.77;;;7.50;;
20397;SDS011;10358;49.590;11.030;2023-11-19T07:16:28;13.20;;;7.80;;
20397;SDS011;10358;49.590;11.030;2023-11-19T07:18:53;12.30;;;8.27;;
20397;SDS011;10358;49.590;11.030;2023-11-19T07:21:19;12.73;;;7.87;;
20397;SDS011;10358;49.590;11.030;2023-11-19T07:23:44;15.07;;;8.23;;
20397;SDS011;10358;49.590;11.030;2023-11-19T07:26:11;12.57;;;7.60;;
20397;SDS011;10358;49.590;11.030;2023-11-19T07:28:37;14.17;;;7.67;;
20397;SDS011;10358;49.590;11.030;2023-11-19T07:31:04;10.80;;;6.73;;
20397;SDS011;10358;49.590;11.030;2023-11-19T07:33:33;8.77;;;6.43;;
20397;SDS011;10358;49.590;11.030;2023-11-19T07:35:58;9.13;;;5.27;;
20397;SDS011;10358;49.590;11.030;2023-11-19T07:38:24;10.30;;;6.40;;
20397;SDS011;10358;49.590;11.030;2023-11-19T07:40:52;9.80;;;6.30;;
20397;SDS011;10358;49.590;11.030;2023-11-19T07:43:17;11.57;;;6.00;;
20397;SDS011;10358;49.590;11.030;2023-11-19T07:45:43;9.40;;;5.60;;
20397;SDS011;10358;49.590;11.030;2023-11-19T07:48:10;8.37;;;6.23;;
20397;SDS011;10358;49.590;11.030;2023-11-19T07:50:38;10.87;;;7.43;;
20397;SDS011;10358;49.590;11.030;2023-11-19T07:53:03;11.10;;;7.70;;
20397;SDS011;10358;49.590;11.030;2023-11-19T07:55:29;11.13;;;7.40;;
20397;SDS011;10358;49.590;11.030;2023-11-19T07:57:55;10.73;;;7.47;;
20397;SDS011;10358;49.590;11.030;2023-11-19T08:00:20;11.43;;;7.70;;
20397;SDS011;10358;49.590;11.030;2023-11-19T08:02:46;12.07;;;8.17;;
20397;SDS011;10358;49.590;11.030;2023-11-19T08:05:12;11.43;;;7.63;;
20397;SDS011;10358;49.590;11.030;2023-11-19T08:07:37;14.23;;;8.83;;
20397;SDS011;10358;49.590;11.030;2023-11-19T08:10:04;14.53;;;8.13;;
20397;SDS011;10358;49.590;11.030;2023-11-19T08:12:30;15.93;;;8.30;;
20397;SDS011;10358;49.590;11.030;2023-11-19T08:14:56;10.90;;;7.47;;
20397;SDS011;10358;49.590;11.030;2023-11-19T08:17:23;14.30;;;7.97;;
20397;SDS011;10358;49.590;11.030;2023-11-19T08:19:49;14.87;;;8.10;;
20397;SDS011;10358;49.590;11.030;2023-11-19T08:22:16;11.80;;;7.03;;
20397;SDS011;10358;49.590;11.030;2023-11-19T08:24:41;16.00;;;9.40;;
20397;SDS011;10358;49.590;11.030;2023-11-19T08:27:08;19.23;;;10.40;;
20397;SDS011;10358;49.590;11.030;2023-11-19T08:29:33;15.63;;;10.53;;
20397;SDS011;10358;49.590;11.030;2023-11-19T08:32:00;16.73;;;9.90;;
20397;SDS011;10358;49.590;11.030;2023-11-19T08:34:27;18.83;;;11.13;;
20397;SDS011;10358;49.590;11.030;2023-11-19T08:36:52;18.07;;;10.10;;
20397;SDS011;10358;49.590;11.030;2023-11-19T08:39:18;15.53;;;8.57;;
20397;SDS011;10358;49.590;11.030;2023-11-19T08:41:46;12.10;;;6.23;;
20397;SDS011;10358;49.590;11.030;2023-11-19T08:44:12;9.23;;;4.37;;
20397;SDS011;10358;49.590;11.030;2023-11-19T08:46:37;10.23;;;6.43;;
20397;SDS011;10358;49.590;11.030;2023-11-19T08:49:04;4.90;;;2.87;;
20397;SDS011;10358;49.590;11.030;2023-11-19T08:51:30;4.03;;;2.00;;
20397;SDS011;10358;49.590;11.030;2023-11-19T08:53:56;2.23;;;1.63;;
20397;SDS011;10358;49.590;11.030;2023-11-19T08:56:22;3.63;;;1.63;;
20397;SDS011;10358;49.590;11.030;2023-11-19T08:58:48;2.93;;;1.60;;
20397;SDS011;10358;49.590;11.030;2023-11-19T09:01:13;3.27;;;1.77;;
20397;SDS011;10358;49.590;11.030;2023-11-19T09:03:40;3.13;;;1.60;;
20397;SDS011;10358;49.590;11.030;2023-11-19T09:06:05;2.83;;;1.83;;
20397;SDS011;10358;49.590;11.030;2023-11-19T09:08:31;2.07;;;1.60;;
20397;SDS011;10358;49.590;11.030;2023-11-19T09:10:57;3.60;;;2.10;;
20397;SDS011;10358;49.590;11.030;2023-11-19T09:13:22;5.83;;;1.70;;
20397;SDS011;10358;49.590;11.030;2023-11-19T09:15:48;3.00;;;1.60;;
20397;SDS011;10358;49.590;11.030;2023-11-19T09:18:13;2.07;;;1.33;;
20397;SDS011;10358;49.590;11.030;2023-11-19T09:20:39;3.17;;;1.30;;
20397;SDS011;10358;49.590;11.030;2023-11-19T09:23:05;3.93;;;1.30;;
20397;SDS011;10358;49.590;11.030;2023-11-19T09:25:34;3.47;;;1.10;;
20397;SDS011;10358;49.590;11.030;2023-11-19T09:27:59;2.17;;;1.10;;
20397;SDS011;10358;49.590;11.030;2023-11-19T09:30:25;1.53;;;1.10;;
20397;SDS011;10358;49.590;11.030;2023-11-19T09:32:50;3.00;;;1.10;;
20397;SDS011;10358;49.590;11.030;2023-11-19T09:35:16;2.93;;;1.07;;
20397;SDS011;10358;49.590;11.030;2023-11-19T09:37:42;2.90;;;1.10;;
20397;SDS011;10358;49.590;11.030;2023-11-19T09:40:08;2.57;;;1.30;;
20397;SDS011;10358;49.590;11.030;2023-11-19T09:42:43;2.13;;;1.23;;
20397;SDS011;10358;49.590;11.030;2023-11-19T09:45:13;3.00;;;1.23;;
20397;SDS011;10358;49.590;11.030;2023-11-19T09:47:42;1.43;;;1.00;;
20397;SDS011;10358;49.590;11.030;2023-11-19T09:50:10;6.73;;;1.10;;
20397;SDS011;10358;49.590;11.030;2023-11-19T09:52:41;2.53;;;1.13;;
20397;SDS011;10358;49.590;11.030;2023-11-19T09:55:07;2.30;;;1.10;;
20397;SDS011;10358;49.590;11.030;2023-11-19T09:57:33;2.10;;;1.10;;
20397;SDS011;10358;49.590;11.030;2023-11-19T10:00:02;2.53;;;1.20;;
20397;SDS011;10358;49.590;11.030;2023-11-19T10:02:30;2.83;;;1.00;;
20397;SDS011;10358;49.590;11.030;2023-11-19T10:04:58;2.63;;;1.20;;
20397;SDS011;10358;49.590;11.030;2023-11-19T10:07:24;3.37;;;1.20;;
20397;SDS011;10358;49.590;11.030;2023-11-19T10:09:50;3.63;;;0.90;;
20397;SDS011;10358;49.590;11.030;2023-11-19T10:12:15;1.17;;;0.90;;
20397;SDS011;10358;49.590;11.030;2023-11-19T10:14:41;2.70;;;1.10;;
20397;SDS011;10358;49.590;11.030;2023-11-19T10:17:08;3.53;;;1.05;;
20397;SDS011;10358;49.590;11.030;2023-11-19T10:19:36;2.30;;;1.00;;
20397;SDS011;10358;49.590;11.030;2023-11-19T10:22:04;2.15;;;1.17;;
20397;SDS011;10358;49.590;11.030;2023-11-19T10:24:31;8.13;;;1.40;;
20397;SDS011;10358;49.590;11.030;2023-11-19T10:27:01;4.63;;;1.23;;
20397;SDS011;10358;49.590;11.030;2023-11-19T10:29:29;3.90;;;1.10;;
20397;SDS011;10358;49.590;11.030;2023-11-19T10:31:55;4.97;;;1.20;;
20397;SDS011;10358;49.590;11.030;2023-11-19T10:34:25;2.97;;;1.10;;
20397;SDS011;10358;49.590;11.030;2023-11-19T10:36:55;3.58;;;1.10;;
20397;SDS011;10358;49.590;11.030;2023-11-19T10:39:21;4.70;;;1.20;;
20397;SDS011;10358;49.590;11.030;2023-11-19T10:41:48;3.10;;;1.00;;
20397;SDS011;10358;49.590;11.030;2023-11-19T10:44:30;2.30;;;1.00;;
20397;SDS011;10358;49.590;11.030;2023-11-19T10:46:58;2.15;;;0.95;;
20397;SDS011;10358;49.590;11.030;2023-11-19T10:49:24;2.95;;;1.10;;
20397;SDS011;10358;49.590;11.030;2023-11-19T10:51:50;3.33;;;1.07;;
20397;SDS011;10358;49.590;11.030;2023-11-19T10:54:18;2.58;;;1.05;;
20397;SDS011;10358;49.590;11.030;2023-11-19T10:56:49;3.72;;;1.35;;
20397;SDS011;10358;49.590;11.030;2023-11-19T10:59:19;3.40;;;0.87;;
20397;SDS011;10358;49.590;11.030;2023-11-19T11:01:47;3.30;;;1.00;;
20397;SDS011;10358;49.590;11.030;2023-11-19T11:04:16;2.25;;;0.80;;
20397;SDS011;10358;49.590;11.030;2023-11-19T11:06:48;2.38;;;1.00;;
20397;SDS011;10358;49.590;11.030;2023-11-19T11:09:13;1.45;;;1.00;;
20397;SDS011;10358;49.590;11.030;2023-11-19T11:11:40;2.70;;;0.80;;
20397;SDS011;10358;49.590;11.030;2023-11-19T11:14:09;2.42;;;0.90;;
20397;SDS011;10358;49.590;11.030;2023-11-19T11:16:37;1.80;;;0.68;;
20397;SDS011;10358;49.590;11.030;2023-11-19T11:19:07;1.40;;;0.77;;
20397;SDS011;10358;49.590;11.030;2023-11-19T11:21:34;3.65;;;1.00;;
20397;SDS011;10358;49.590;11.030;2023-11-19T11:24:20;3.00;;;0.90;;
20397;SDS011;10358;49.590;11.030;2023-11-19T11:26:52;2.40;;;1.10;;
20397;SDS011;10358;49.590;11.030;2023-11-19T11:29:41;3.85;;;1.38;;
20397;SDS011;10358;49.590;11.030;2023-11-19T11:32:32;4.68;;;0.90;;
20397;SDS011;10358;49.590;11.030;2023-11-19T11:37:53;4.10;;;1.10;;
20397;SDS011;10358;49.590;11.030;2023-11-19T11:40:36;3.10;;;1.13;;
20397;SDS011;10358;49.590;11.030;2023-11-19T11:43:09;3.10;;;1.00;;
20397;SDS011;10358;49.590;11.030;2023-11-19T11:46:09;4.50;;;1.20;;
20397;SDS011;10358;49.590;11.030;2023-11-19T11:48:59;4.32;;;1.13;;
20397;SDS011;10358;49.590;11.030;2023-11-19T11:54:10;2.08;;;1.00;;
20397;SDS011;10358;49.590;11.030;2023-11-19T11:56:39;4.97;;;1.20;;
20397;SDS011;10358;49.590;11.030;2023-11-19T11:59:08;4.22;;;1.20;;
20397;SDS011;10358;49.590;11.030;2023-11-19T12:01:57;1.58;;;1.00;;
20397;SDS011;10358;49.590;11.030;2023-11-19T12:04:26;1.30;;;1.00;;
20397;SDS011;10358;49.590;11.030;2023-11-19T12:07:03;2.03;;;1.10;;
20397;SDS011;10358;49.590;11.030;2023-11-19T12:09:28;3.53;;;1.08;;
20397;SDS011;10358;49.590;11.030;2023-11-19T12:12:06;1.67;;;1.05;;
20397;SDS011;10358;49.590;11.030;2023-11-19T12:15:10;2.70;;;1.10;;
20397;SDS011;10358;49.590;11.030;2023-11-19T12:20:04;2.08;;;1.05;;
20397;SDS011;10358;49.590;11.030;2023-11-19T12:22:34;6.05;;;1.13;;
20397;SDS011;10358;49.590;11.030;2023-11-19T12:25:02;3.38;;;1.27;;
20397;SDS011;10358;49.590;11.030;2023-11-19T12:27:29;1.53;;;0.93;;
20397;SDS011;10358;49.590;11.030;2023-11-19T12:29:55;6.05;;;1.30;;
20397;SDS011;10358;49.590;11.030;2023-11-19T12:32:22;4.25;;;1.00;;
20397;SDS011;10358;49.590;11.030;2023-11-19T12:34:47;3.72;;;1.25;;
20397;SDS011;10358;49.590;11.030;2023-11-19T12:37:13;2.53;;;1.10;;
20397;SDS011;10358;49.590;11.030;2023-11-19T12:39:38;4.88;;;1.10;;
20397;SDS011;10358;49.590;11.030;2023-11-19T12:42:05;4.85;;;1.00;;
20397;SDS011;10358;49.590;11.030;2023-11-19T12:44:30;4.45;;;1.10;;
20397;SDS011;10358;49.590;11.030;2023-11-19T12:47:03;2.30;;;1.30;;
20397;SDS011;10358;49.590;11.030;2023-11-19T12:49:31;4.35;;;1.20;;
20397;SDS011;10358;49.590;11.030;2023-11-19T12:52:00;2.13;;;1.10;;
20397;SDS011;10358;49.590;11.030;2023-11-19T12:54:35;5.00;;;1.15;;
20397;SDS011;10358;49.590;11.030;2023-11-19T12:57:01;3.03;;;1.10;;
20397;SDS011;10358;49.590;11.030;2023-11-19T12:59:28;3.67;;;1.27;;
20397;SDS011;10358;49.590;11.030;2023-11-19T13:01:54;2.80;;;1.30;;
20397;SDS011;10358;49.590;11.030;2023-11-19T13:04:21;2.87;;;1.20;;
20397;SDS011;10358;49.590;11.030;2023-11-19T13:06:47;4.47;;;1.23;;
20397;SDS011;10358;49.590;11.030;2023-11-19T13:11:49;5.63;;;1.30;;
20397;SDS011;10358;49.590;11.030;2023-11-19T13:14:15;3.53;;;1.20;;
20397;SDS011;10358;49.590;11.030;2023-11-19T13:16:40;6.75;;;1.30;;
20397;SDS011;10358;49.590;11.030;2023-11-19T13:19:07;3.63;;;1.50;;
20397;SDS011;10358;49.590;11.030;2023-11-19T13:21:33;4.45;;;1.08;;
20397;SDS011;10358;49.590;11.030;2023-11-19T13:23:59;3.67;;;1.30;;
20397;SDS011;10358;49.590;11.030;2023-11-19T13:26:25;2.92;;;1.10;;
20397;SDS011;10358;49.590;11.030;2023-11-19T13:28:50;5.30;;;1.67;;
20397;SDS011;10358;49.590;11.030;2023-11-19T13:31:16;4.43;;;1.47;;
20397;SDS011;10358;49.590;11.030;2023-11-19T13:33:42;4.03;;;1.20;;
20397;SDS011;10358;49.590;11.030;2023-11-19T13:36:08;5.72;;;1.38;;
20397;SDS011;10358;49.590;11.030;2023-11-19T13:38:34;4.00;;;1.23;;
20397;SDS011;10358;49.590;11.030;2023-11-19T13:41:01;3.45;;;1.40;;
20397;SDS011;10358;49.590;11.030;2023-11-19T13:43:27;1.85;;;1.10;;
20397;SDS011;10358;49.590;11.030;2023-11-19T13:45:53;4.18;;;1.27;;
20397;SDS011;10358;49.590;11.030;2023-11-19T13:48:19;6.82;;;1.10;;
20397;SDS011;10358;49.590;11.030;2023-11-19T13:50:45;2.42;;;1.20;;
20397;SDS011;10358;49.590;11.030;2023-11-19T13:53:11;2.90;;;1.20;;
20397;SDS011;10358;49.590;11.030;2023-11-19T13:55:37;2.70;;;1.00;;
20397;SDS011;10358;49.590;11.030;2023-11-19T13:58:02;4.97;;;1.30;;
20397;SDS011;10358;49.590;11.030;2023-11-19T14:00:28;4.03;;;1.33;;
20397;SDS011;10358;49.590;11.030;2023-11-19T14:02:53;4.93;;;1.20;;
20397;SDS011;10358;49.590;11.030;2023-11-19T14:05:19;6.88;;;1.40;;
20397;SDS011;10358;49.590;11.030;2023-11-19T14:07:45;4.37;;;1.30;;
20397;SDS011;10358;49.590;11.030;2023-11-19T14:10:13;3.95;;;1.52;;
20397;SDS011;10358;49.590;11.030;2023-11-19T14:12:40;4.03;;;1.20;;
20397;SDS011;10358;49.590;11.030;2023-11-19T14:15:06;4.53;;;3.23;;
20397;SDS011;10358;49.590;11.030;2023-11-19T14:17:34;3.50;;;1.43;;
20397;SDS011;10358;49.590;11.030;2023-11-19T14:20:03;4.70;;;1.43;;
20397;SDS011;10358;49.590;11.030;2023-11-19T14:22:37;8.97;;;1.40;;
20397;SDS011;10358;49.590;11.030;2023-11-19T14:25:07;1.60;;;0.93;;
20397;SDS011;10358;49.590;11.030;2023-11-19T14:27:40;3.40;;;1.30;;
20397;SDS011;10358;49.590;11.030;2023-11-19T14:30:06;4.47;;;1.30;;
20397;SDS011;10358;49.590;11.030;2023-11-19T14:32:35;4.45;;;1.20;;
20397;SDS011;10358;49.590;11.030;2023-11-19T14:35:00;2.80;;;1.10;;
20397;SDS011;10358;49.590;11.030;2023-11-19T14:37:26;4.03;;;1.00;;
20397;SDS011;10358;49.590;11.030;2023-11-19T14:39:51;5.80;;;1.43;;
20397;SDS011;10358;49.590;11.030;2023-11-19T14:42:17;3.15;;;1.30;;
20397;SDS011;10358;49.590;11.030;2023-11-19T14:44:43;2.37;;;1.13;;
20397;SDS011;10358;49.590;11.030;2023-11-19T14:47:08;1.92;;;1.20;;